sensor_id;sensor_type;location;lat;lon;timestamp;P1;durP1;ratioP1;P2;durP2;ratioP2
22764;SDS011;11549;50.852;3.816;2022-12-20T00:01:33;8.27;;;4.55;;
22764;SDS011;11549;50.852;3.816;2022-12-20T00:04:02;8.40;;;4.22;;
22764;SDS011;11549;50.852;3.816;2022-12-20T00:06:33;7.13;;;4.47;;
22764;SDS011;11549;50.852;3.816;2022-12-20T00:09:04;7.57;;;4.68;;
22764;SDS011;11549;50.852;3.816;2022-12-20T00:11:35;8.40;;;4.80;;
22764;SDS011;11549;50.852;3.816;2022-12-20T00:14:06;9.07;;;5.22;;
22764;SDS011;11549;50.852;3.816;2022-12-20T00:16:35;9.45;;;5.30;;
22764;SDS011;11549;50.852;3.816;2022-12-20T00:19:04;9.05;;;5.32;;
22764;SDS011;11549;50.852;3.816;2022-12-20T00:21:33;10.98;;;5.78;;
22764;SDS011;11549;50.852;3.816;2022-12-20T00:24:04;8.82;;;4.93;;
22764;SDS011;11549;50.852;3.816;2022-12-20T00:26:33;9.18;;;5.20;;
22764;SDS011;11549;50.852;3.816;2022-12-20T00:29:03;8.10;;;5.35;;
22764;SDS011;11549;50.852;3.816;2022-12-20T00:31:32;10.85;;;5.30;;
22764;SDS011;11549;50.852;3.816;2022-12-20T00:34:01;11.90;;;5.28;;
22764;SDS011;11549;50.852;3.816;2022-12-20T00:36:30;9.13;;;5.38;;
22764;SDS011;11549;50.852;3.816;2022-12-20T00:38:59;8.48;;;5.72;;
22764;SDS011;11549;50.852;3.816;2022-12-20T00:41:30;10.80;;;5.65;;
22764;SDS011;11549;50.852;3.816;2022-12-20T00:44:00;8.25;;;5.38;;
22764;SDS011;11549;50.852;3.816;2022-12-20T00:46:28;9.93;;;6.20;;
22764;SDS011;11549;50.852;3.816;2022-12-20T00:48:58;10.80;;;5.68;;
22764;SDS011;11549;50.852;3.816;2022-12-20T00:51:28;11.20;;;5.75;;
22764;SDS011;11549;50.852;3.816;2022-12-20T00:53:58;9.30;;;5.50;;
22764;SDS011;11549;50.852;3.816;2022-12-20T00:56:27;7.88;;;4.80;;
22764;SDS011;11549;50.852;3.816;2022-12-20T00:58:58;7.70;;;5.35;;
22764;SDS011;11549;50.852;3.816;2022-12-20T01:01:27;7.60;;;5.05;;
22764;SDS011;11549;50.852;3.816;2022-12-20T01:03:57;9.48;;;5.25;;
22764;SDS011;11549;50.852;3.816;2022-12-20T01:06:26;8.13;;;5.00;;
22764;SDS011;11549;50.852;3.816;2022-12-20T01:08:55;11.77;;;5.03;;
22764;SDS011;11549;50.852;3.816;2022-12-20T01:11:25;7.97;;;4.70;;
22764;SDS011;11549;50.852;3.816;2022-12-20T01:13:55;7.45;;;4.85;;
22764;SDS011;11549;50.852;3.816;2022-12-20T01:16:29;7.38;;;4.80;;
22764;SDS011;11549;50.852;3.816;2022-12-20T01:18:59;9.68;;;5.00;;
22764;SDS011;11549;50.852;3.816;2022-12-20T01:21:27;7.88;;;4.90;;
22764;SDS011;11549;50.852;3.816;2022-12-20T01:23:56;8.43;;;4.57;;
22764;SDS011;11549;50.852;3.816;2022-12-20T01:26:25;6.60;;;4.82;;
22764;SDS011;11549;50.852;3.816;2022-12-20T01:28:55;8.57;;;4.80;;
22764;SDS011;11549;50.852;3.816;2022-12-20T01:31:28;8.43;;;5.13;;
22764;SDS011;11549;50.852;3.816;2022-12-20T01:33:57;7.30;;;4.47;;
22764;SDS011;11549;50.852;3.816;2022-12-20T01:36:28;6.43;;;4.57;;
22764;SDS011;11549;50.852;3.816;2022-12-20T01:38:58;8.18;;;4.63;;
22764;SDS011;11549;50.852;3.816;2022-12-20T01:41:28;6.93;;;4.63;;
22764;SDS011;11549;50.852;3.816;2022-12-20T01:44:00;9.43;;;4.72;;
22764;SDS011;11549;50.852;3.816;2022-12-20T01:46:30;6.15;;;4.63;;
22764;SDS011;11549;50.852;3.816;2022-12-20T01:49:01;8.20;;;4.65;;
22764;SDS011;11549;50.852;3.816;2022-12-20T01:51:34;7.93;;;4.53;;
22764;SDS011;11549;50.852;3.816;2022-12-20T01:54:07;7.18;;;4.43;;
22764;SDS011;11549;50.852;3.816;2022-12-20T01:56:40;7.13;;;4.43;;
22764;SDS011;11549;50.852;3.816;2022-12-20T01:59:13;8.05;;;4.78;;
22764;SDS011;11549;50.852;3.816;2022-12-20T02:01:41;5.68;;;4.40;;
22764;SDS011;11549;50.852;3.816;2022-12-20T02:04:11;8.88;;;4.47;;
22764;SDS011;11549;50.852;3.816;2022-12-20T02:06:39;7.03;;;4.75;;
22764;SDS011;11549;50.852;3.816;2022-12-20T02:09:08;9.63;;;4.82;;
22764;SDS011;11549;50.852;3.816;2022-12-20T02:11:44;8.27;;;4.63;;
22764;SDS011;11549;50.852;3.816;2022-12-20T02:14:26;10.02;;;4.68;;
22764;SDS011;11549;50.852;3.816;2022-12-20T02:17:09;8.60;;;4.55;;
22764;SDS011;11549;50.852;3.816;2022-12-20T02:19:52;8.57;;;4.82;;
22764;SDS011;11549;50.852;3.816;2022-12-20T02:22:37;7.15;;;4.68;;
22764;SDS011;11549;50.852;3.816;2022-12-20T02:25:27;7.97;;;4.65;;
22764;SDS011;11549;50.852;3.816;2022-12-20T02:28:20;7.53;;;4.82;;
22764;SDS011;11549;50.852;3.816;2022-12-20T02:31:13;9.95;;;4.95;;
22764;SDS011;11549;50.852;3.816;2022-12-20T02:33:45;9.10;;;5.18;;
22764;SDS011;11549;50.852;3.816;2022-12-20T02:36:15;7.75;;;4.97;;
22764;SDS011;11549;50.852;3.816;2022-12-20T02:38:45;9.68;;;4.80;;
22764;SDS011;11549;50.852;3.816;2022-12-20T02:41:14;8.13;;;4.65;;
22764;SDS011;11549;50.852;3.816;2022-12-20T02:43:48;8.40;;;4.45;;
22764;SDS011;11549;50.852;3.816;2022-12-20T02:46:41;8.35;;;4.80;;
22764;SDS011;11549;50.852;3.816;2022-12-20T02:49:11;8.40;;;4.65;;
22764;SDS011;11549;50.852;3.816;2022-12-20T02:51:44;6.05;;;4.43;;
22764;SDS011;11549;50.852;3.816;2022-12-20T02:54:14;7.35;;;4.45;;
22764;SDS011;11549;50.852;3.816;2022-12-20T02:56:46;9.10;;;4.43;;
22764;SDS011;11549;50.852;3.816;2022-12-20T02:59:19;6.63;;;4.55;;
22764;SDS011;11549;50.852;3.816;2022-12-20T03:01:53;8.75;;;4.70;;
22764;SDS011;11549;50.852;3.816;2022-12-20T03:04:23;6.53;;;4.28;;
22764;SDS011;11549;50.852;3.816;2022-12-20T03:06:54;8.55;;;4.57;;
22764;SDS011;11549;50.852;3.816;2022-12-20T03:09:24;6.95;;;4.32;;
22764;SDS011;11549;50.852;3.816;2022-12-20T03:11:52;6.82;;;4.72;;
22764;SDS011;11549;50.852;3.816;2022-12-20T03:14:22;9.60;;;4.55;;
22764;SDS011;11549;50.852;3.816;2022-12-20T03:16:53;7.63;;;4.57;;
22764;SDS011;11549;50.852;3.816;2022-12-20T03:19:21;6.72;;;4.35;;
22764;SDS011;11549;50.852;3.816;2022-12-20T03:21:49;8.60;;;5.20;;
22764;SDS011;11549;50.852;3.816;2022-12-20T03:24:18;7.22;;;4.88;;
22764;SDS011;11549;50.852;3.816;2022-12-20T03:26:46;9.27;;;5.10;;
22764;SDS011;11549;50.852;3.816;2022-12-20T03:29:15;7.07;;;4.65;;
22764;SDS011;11549;50.852;3.816;2022-12-20T03:31:43;7.75;;;4.50;;
22764;SDS011;11549;50.852;3.816;2022-12-20T03:34:13;9.30;;;4.72;;
22764;SDS011;11549;50.852;3.816;2022-12-20T03:36:41;7.38;;;4.80;;
22764;SDS011;11549;50.852;3.816;2022-12-20T03:39:10;8.32;;;4.28;;
22764;SDS011;11549;50.852;3.816;2022-12-20T03:41:38;8.68;;;5.05;;
22764;SDS011;11549;50.852;3.816;2022-12-20T03:44:07;7.65;;;4.93;;
22764;SDS011;11549;50.852;3.816;2022-12-20T03:46:35;7.75;;;4.32;;
22764;SDS011;11549;50.852;3.816;2022-12-20T03:49:03;6.90;;;4.53;;
22764;SDS011;11549;50.852;3.816;2022-12-20T03:51:33;10.40;;;4.40;;
22764;SDS011;11549;50.852;3.816;2022-12-20T03:54:02;8.02;;;4.40;;
22764;SDS011;11549;50.852;3.816;2022-12-20T03:56:30;8.23;;;4.50;;
22764;SDS011;11549;50.852;3.816;2022-12-20T03:58:59;6.78;;;4.25;;
22764;SDS011;11549;50.852;3.816;2022-12-20T04:01:27;7.43;;;4.18;;
22764;SDS011;11549;50.852;3.816;2022-12-20T04:03:56;7.38;;;4.07;;
22764;SDS011;11549;50.852;3.816;2022-12-20T04:06:24;8.13;;;4.57;;
22764;SDS011;11549;50.852;3.816;2022-12-20T04:08:54;5.70;;;4.05;;
22764;SDS011;11549;50.852;3.816;2022-12-20T04:11:22;7.40;;;4.43;;
22764;SDS011;11549;50.852;3.816;2022-12-20T04:13:51;7.00;;;4.18;;
22764;SDS011;11549;50.852;3.816;2022-12-20T04:16:21;7.88;;;3.92;;
22764;SDS011;11549;50.852;3.816;2022-12-20T04:18:50;8.80;;;4.18;;
22764;SDS011;11549;50.852;3.816;2022-12-20T04:21:20;8.05;;;4.35;;
22764;SDS011;11549;50.852;3.816;2022-12-20T04:23:50;7.20;;;4.25;;
22764;SDS011;11549;50.852;3.816;2022-12-20T04:26:20;10.40;;;3.95;;
22764;SDS011;11549;50.852;3.816;2022-12-20T04:28:49;7.15;;;4.05;;
22764;SDS011;11549;50.852;3.816;2022-12-20T04:31:18;6.32;;;3.83;;
22764;SDS011;11549;50.852;3.816;2022-12-20T04:33:50;6.45;;;3.58;;
22764;SDS011;11549;50.852;3.816;2022-12-20T04:36:19;5.78;;;3.70;;
22764;SDS011;11549;50.852;3.816;2022-12-20T04:38:47;6.63;;;3.85;;
22764;SDS011;11549;50.852;3.816;2022-12-20T04:41:15;6.07;;;3.08;;
22764;SDS011;11549;50.852;3.816;2022-12-20T04:43:50;6.13;;;3.28;;
22764;SDS011;11549;50.852;3.816;2022-12-20T04:46:20;7.80;;;3.30;;
22764;SDS011;11549;50.852;3.816;2022-12-20T04:48:50;6.13;;;3.08;;
22764;SDS011;11549;50.852;3.816;2022-12-20T04:51:24;5.55;;;3.30;;
22764;SDS011;11549;50.852;3.816;2022-12-20T04:53:53;4.95;;;2.97;;
22764;SDS011;11549;50.852;3.816;2022-12-20T04:56:22;6.28;;;3.25;;
22764;SDS011;11549;50.852;3.816;2022-12-20T04:58:55;7.85;;;3.67;;
22764;SDS011;11549;50.852;3.816;2022-12-20T05:01:26;7.83;;;3.37;;
22764;SDS011;11549;50.852;3.816;2022-12-20T05:03:54;7.28;;;3.42;;
22764;SDS011;11549;50.852;3.816;2022-12-20T05:06:23;6.55;;;2.92;;
22764;SDS011;11549;50.852;3.816;2022-12-20T05:08:52;5.13;;;3.15;;
22764;SDS011;11549;50.852;3.816;2022-12-20T05:11:21;6.05;;;2.92;;
22764;SDS011;11549;50.852;3.816;2022-12-20T05:13:49;5.88;;;2.92;;
22764;SDS011;11549;50.852;3.816;2022-12-20T05:16:19;5.85;;;3.35;;
22764;SDS011;11549;50.852;3.816;2022-12-20T05:18:47;5.47;;;3.10;;
22764;SDS011;11549;50.852;3.816;2022-12-20T05:21:16;5.35;;;2.50;;
22764;SDS011;11549;50.852;3.816;2022-12-20T05:24:01;6.22;;;3.05;;
22764;SDS011;11549;50.852;3.816;2022-12-20T05:26:47;6.55;;;3.00;;
22764;SDS011;11549;50.852;3.816;2022-12-20T05:29:16;5.53;;;2.92;;
22764;SDS011;11549;50.852;3.816;2022-12-20T05:31:45;5.22;;;2.90;;
22764;SDS011;11549;50.852;3.816;2022-12-20T05:34:14;6.57;;;2.97;;
22764;SDS011;11549;50.852;3.816;2022-12-20T05:36:43;7.13;;;2.97;;
22764;SDS011;11549;50.852;3.816;2022-12-20T05:39:11;4.93;;;3.00;;
22764;SDS011;11549;50.852;3.816;2022-12-20T05:41:40;7.90;;;2.97;;
22764;SDS011;11549;50.852;3.816;2022-12-20T05:44:08;5.03;;;2.50;;
22764;SDS011;11549;50.852;3.816;2022-12-20T05:46:37;4.55;;;2.50;;
22764;SDS011;11549;50.852;3.816;2022-12-20T05:49:07;6.88;;;3.28;;
22764;SDS011;11549;50.852;3.816;2022-12-20T05:51:35;5.20;;;2.67;;
22764;SDS011;11549;50.852;3.816;2022-12-20T05:54:03;5.85;;;2.70;;
22764;SDS011;11549;50.852;3.816;2022-12-20T05:56:32;5.22;;;2.78;;
22764;SDS011;11549;50.852;3.816;2022-12-20T05:59:01;6.38;;;2.72;;
22764;SDS011;11549;50.852;3.816;2022-12-20T06:01:30;4.57;;;2.50;;
22764;SDS011;11549;50.852;3.816;2022-12-20T06:03:59;4.68;;;2.60;;
22764;SDS011;11549;50.852;3.816;2022-12-20T06:06:29;4.63;;;2.30;;
22764;SDS011;11549;50.852;3.816;2022-12-20T06:08:57;5.03;;;2.30;;
22764;SDS011;11549;50.852;3.816;2022-12-20T06:11:26;4.72;;;2.35;;
22764;SDS011;11549;50.852;3.816;2022-12-20T06:13:56;4.80;;;2.72;;
22764;SDS011;11549;50.852;3.816;2022-12-20T06:16:24;5.60;;;2.63;;
22764;SDS011;11549;50.852;3.816;2022-12-20T06:18:54;6.80;;;2.70;;
22764;SDS011;11549;50.852;3.816;2022-12-20T06:21:22;4.88;;;2.58;;
22764;SDS011;11549;50.852;3.816;2022-12-20T06:23:55;5.35;;;2.40;;
22764;SDS011;11549;50.852;3.816;2022-12-20T06:26:24;5.90;;;2.72;;
22764;SDS011;11549;50.852;3.816;2022-12-20T06:28:52;6.10;;;2.67;;
22764;SDS011;11549;50.852;3.816;2022-12-20T06:31:22;5.80;;;2.38;;
22764;SDS011;11549;50.852;3.816;2022-12-20T06:33:51;5.80;;;2.63;;
22764;SDS011;11549;50.852;3.816;2022-12-20T06:36:19;5.40;;;2.50;;
22764;SDS011;11549;50.852;3.816;2022-12-20T06:38:47;6.43;;;2.50;;
22764;SDS011;11549;50.852;3.816;2022-12-20T06:41:18;7.35;;;2.55;;
22764;SDS011;11549;50.852;3.816;2022-12-20T06:43:46;6.70;;;2.67;;
22764;SDS011;11549;50.852;3.816;2022-12-20T06:46:14;6.53;;;2.65;;
22764;SDS011;11549;50.852;3.816;2022-12-20T06:48:43;5.82;;;2.70;;
22764;SDS011;11549;50.852;3.816;2022-12-20T06:51:11;5.25;;;2.40;;
22764;SDS011;11549;50.852;3.816;2022-12-20T06:53:40;4.78;;;2.58;;
22764;SDS011;11549;50.852;3.816;2022-12-20T06:56:08;5.88;;;2.58;;
22764;SDS011;11549;50.852;3.816;2022-12-20T06:58:38;7.28;;;2.60;;
22764;SDS011;11549;50.852;3.816;2022-12-20T07:01:06;6.40;;;2.67;;
22764;SDS011;11549;50.852;3.816;2022-12-20T07:03:34;5.88;;;2.63;;
22764;SDS011;11549;50.852;3.816;2022-12-20T07:06:03;5.85;;;2.95;;
22764;SDS011;11549;50.852;3.816;2022-12-20T07:08:31;11.63;;;3.13;;
22764;SDS011;11549;50.852;3.816;2022-12-20T07:11:03;6.60;;;2.75;;
22764;SDS011;11549;50.852;3.816;2022-12-20T07:13:32;8.02;;;3.10;;
22764;SDS011;11549;50.852;3.816;2022-12-20T07:16:02;5.80;;;2.97;;
22764;SDS011;11549;50.852;3.816;2022-12-20T07:18:32;8.50;;;3.08;;
22764;SDS011;11549;50.852;3.816;2022-12-20T07:21:02;6.13;;;3.13;;
22764;SDS011;11549;50.852;3.816;2022-12-20T07:23:32;7.13;;;3.17;;
22764;SDS011;11549;50.852;3.816;2022-12-20T07:26:02;6.82;;;3.03;;
22764;SDS011;11549;50.852;3.816;2022-12-20T07:28:30;7.88;;;3.00;;
22764;SDS011;11549;50.852;3.816;2022-12-20T07:30:59;7.45;;;2.83;;
22764;SDS011;11549;50.852;3.816;2022-12-20T07:33:29;8.15;;;3.58;;
22764;SDS011;11549;50.852;3.816;2022-12-20T07:36:01;6.57;;;3.17;;
22764;SDS011;11549;50.852;3.816;2022-12-20T07:38:31;5.20;;;3.17;;
22764;SDS011;11549;50.852;3.816;2022-12-20T07:41:01;6.65;;;3.22;;
22764;SDS011;11549;50.852;3.816;2022-12-20T07:43:34;6.80;;;3.20;;
22764;SDS011;11549;50.852;3.816;2022-12-20T07:46:04;6.07;;;3.25;;
22764;SDS011;11549;50.852;3.816;2022-12-20T07:48:35;7.00;;;3.50;;
22764;SDS011;11549;50.852;3.816;2022-12-20T07:51:04;6.80;;;3.10;;
22764;SDS011;11549;50.852;3.816;2022-12-20T07:53:36;6.43;;;3.03;;
22764;SDS011;11549;50.852;3.816;2022-12-20T07:56:07;7.97;;;3.22;;
22764;SDS011;11549;50.852;3.816;2022-12-20T07:58:37;8.88;;;3.35;;
22764;SDS011;11549;50.852;3.816;2022-12-20T08:01:07;5.43;;;3.22;;
22764;SDS011;11549;50.852;3.816;2022-12-20T08:03:40;8.88;;;3.95;;
22764;SDS011;11549;50.852;3.816;2022-12-20T08:06:15;6.85;;;3.53;;
22764;SDS011;11549;50.852;3.816;2022-12-20T08:08:46;8.23;;;3.60;;
22764;SDS011;11549;50.852;3.816;2022-12-20T08:11:18;6.67;;;3.27;;
22764;SDS011;11549;50.852;3.816;2022-12-20T08:13:47;7.18;;;3.60;;
22764;SDS011;11549;50.852;3.816;2022-12-20T08:16:23;7.35;;;3.13;;
22764;SDS011;11549;50.852;3.816;2022-12-20T08:18:53;7.78;;;3.30;;
22764;SDS011;11549;50.852;3.816;2022-12-20T08:21:21;8.25;;;3.40;;
22764;SDS011;11549;50.852;3.816;2022-12-20T08:23:49;7.10;;;3.30;;
22764;SDS011;11549;50.852;3.816;2022-12-20T08:26:18;7.35;;;3.50;;
22764;SDS011;11549;50.852;3.816;2022-12-20T08:28:46;7.40;;;3.50;;
22764;SDS011;11549;50.852;3.816;2022-12-20T08:31:15;8.75;;;3.50;;
22764;SDS011;11549;50.852;3.816;2022-12-20T08:33:44;6.95;;;3.30;;
22764;SDS011;11549;50.852;3.816;2022-12-20T08:36:13;6.85;;;3.10;;
22764;SDS011;11549;50.852;3.816;2022-12-20T08:38:42;7.20;;;3.35;;
22764;SDS011;11549;50.852;3.816;2022-12-20T08:41:11;8.70;;;3.25;;
22764;SDS011;11549;50.852;3.816;2022-12-20T08:43:41;7.65;;;3.75;;
22764;SDS011;11549;50.852;3.816;2022-12-20T08:46:10;6.45;;;3.75;;
22764;SDS011;11549;50.852;3.816;2022-12-20T08:48:39;8.63;;;3.70;;
22764;SDS011;11549;50.852;3.816;2022-12-20T08:51:08;14.80;;;4.70;;
22764;SDS011;11549;50.852;3.816;2022-12-20T08:53:38;9.35;;;4.38;;
22764;SDS011;11549;50.852;3.816;2022-12-20T08:56:08;9.55;;;3.90;;
22764;SDS011;11549;50.852;3.816;2022-12-20T08:58:38;9.05;;;4.45;;
22764;SDS011;11549;50.852;3.816;2022-12-20T09:01:08;9.45;;;4.72;;
22764;SDS011;11549;50.852;3.816;2022-12-20T09:03:39;7.30;;;4.40;;
22764;SDS011;11549;50.852;3.816;2022-12-20T09:06:08;9.93;;;4.40;;
22764;SDS011;11549;50.852;3.816;2022-12-20T09:08:39;7.65;;;4.22;;
22764;SDS011;11549;50.852;3.816;2022-12-20T09:11:09;8.55;;;4.60;;
22764;SDS011;11549;50.852;3.816;2022-12-20T09:13:39;8.85;;;4.57;;
22764;SDS011;11549;50.852;3.816;2022-12-20T09:16:14;10.13;;;4.72;;
22764;SDS011;11549;50.852;3.816;2022-12-20T09:18:46;8.63;;;4.45;;
22764;SDS011;11549;50.852;3.816;2022-12-20T09:21:15;11.95;;;4.40;;
22764;SDS011;11549;50.852;3.816;2022-12-20T09:23:46;8.27;;;4.10;;
22764;SDS011;11549;50.852;3.816;2022-12-20T09:26:17;8.55;;;4.00;;
22764;SDS011;11549;50.852;3.816;2022-12-20T09:28:47;8.63;;;4.78;;
22764;SDS011;11549;50.852;3.816;2022-12-20T09:31:16;8.85;;;4.75;;
22764;SDS011;11549;50.852;3.816;2022-12-20T09:33:46;10.48;;;4.75;;
22764;SDS011;11549;50.852;3.816;2022-12-20T09:36:15;9.38;;;4.80;;
22764;SDS011;11549;50.852;3.816;2022-12-20T09:38:47;9.98;;;4.80;;
22764;SDS011;11549;50.852;3.816;2022-12-20T09:41:18;9.43;;;4.43;;
22764;SDS011;11549;50.852;3.816;2022-12-20T09:43:51;10.32;;;4.30;;
22764;SDS011;11549;50.852;3.816;2022-12-20T09:46:21;7.93;;;4.47;;
22764;SDS011;11549;50.852;3.816;2022-12-20T09:48:51;11.57;;;5.00;;
22764;SDS011;11549;50.852;3.816;2022-12-20T09:51:29;11.10;;;5.45;;
22764;SDS011;11549;50.852;3.816;2022-12-20T09:54:14;9.55;;;4.75;;
22764;SDS011;11549;50.852;3.816;2022-12-20T09:56:50;13.32;;;5.93;;
22764;SDS011;11549;50.852;3.816;2022-12-20T09:59:26;8.23;;;5.57;;
22764;SDS011;11549;50.852;3.816;2022-12-20T10:02:06;8.27;;;5.10;;
22764;SDS011;11549;50.852;3.816;2022-12-20T10:04:56;10.10;;;4.53;;
22764;SDS011;11549;50.852;3.816;2022-12-20T10:07:28;10.40;;;5.18;;
22764;SDS011;11549;50.852;3.816;2022-12-20T10:10:15;8.82;;;5.50;;
22764;SDS011;11549;50.852;3.816;2022-12-20T10:13:11;10.43;;;5.53;;
22764;SDS011;11549;50.852;3.816;2022-12-20T10:18:35;8.30;;;5.05;;
22764;SDS011;11549;50.852;3.816;2022-12-20T10:21:18;10.93;;;5.25;;
22764;SDS011;11549;50.852;3.816;2022-12-20T10:23:55;12.07;;;5.32;;
22764;SDS011;11549;50.852;3.816;2022-12-20T10:26:30;9.88;;;5.82;;
22764;SDS011;11549;50.852;3.816;2022-12-20T10:28:59;10.23;;;5.90;;
22764;SDS011;11549;50.852;3.816;2022-12-20T10:31:28;11.18;;;5.85;;
22764;SDS011;11549;50.852;3.816;2022-12-20T10:33:56;10.48;;;6.10;;
22764;SDS011;11549;50.852;3.816;2022-12-20T10:36:26;13.52;;;7.22;;
22764;SDS011;11549;50.852;3.816;2022-12-20T10:38:56;8.85;;;5.60;;
22764;SDS011;11549;50.852;3.816;2022-12-20T10:41:27;9.18;;;5.95;;
22764;SDS011;11549;50.852;3.816;2022-12-20T10:43:59;8.95;;;5.63;;
22764;SDS011;11549;50.852;3.816;2022-12-20T10:46:36;12.02;;;6.00;;
22764;SDS011;11549;50.852;3.816;2022-12-20T10:49:20;10.60;;;5.97;;
22764;SDS011;11549;50.852;3.816;2022-12-20T10:51:54;10.20;;;5.80;;
22764;SDS011;11549;50.852;3.816;2022-12-20T10:54:28;11.27;;;7.20;;
22764;SDS011;11549;50.852;3.816;2022-12-20T10:59:31;13.73;;;8.15;;
22764;SDS011;11549;50.852;3.816;2022-12-20T11:02:02;12.40;;;7.18;;
22764;SDS011;11549;50.852;3.816;2022-12-20T11:04:55;9.43;;;6.03;;
22764;SDS011;11549;50.852;3.816;2022-12-20T11:07:27;10.70;;;6.40;;
22764;SDS011;11549;50.852;3.816;2022-12-20T11:09:57;11.43;;;6.25;;
22764;SDS011;11549;50.852;3.816;2022-12-20T11:12:29;11.00;;;6.10;;
22764;SDS011;11549;50.852;3.816;2022-12-20T11:15:07;13.27;;;6.10;;
22764;SDS011;11549;50.852;3.816;2022-12-20T11:17:39;10.18;;;6.43;;
22764;SDS011;11549;50.852;3.816;2022-12-20T11:20:20;14.40;;;6.72;;
22764;SDS011;11549;50.852;3.816;2022-12-20T11:23:01;13.40;;;7.43;;
22764;SDS011;11549;50.852;3.816;2022-12-20T11:25:40;13.38;;;6.32;;
22764;SDS011;11549;50.852;3.816;2022-12-20T11:28:24;10.05;;;5.47;;
22764;SDS011;11549;50.852;3.816;2022-12-20T11:31:05;10.88;;;5.28;;
22764;SDS011;11549;50.852;3.816;2022-12-20T11:33:55;8.00;;;5.10;;
22764;SDS011;11549;50.852;3.816;2022-12-20T11:36:35;9.48;;;5.47;;
22764;SDS011;11549;50.852;3.816;2022-12-20T11:39:20;11.98;;;5.95;;
22764;SDS011;11549;50.852;3.816;2022-12-20T11:42:00;12.27;;;5.53;;
22764;SDS011;11549;50.852;3.816;2022-12-20T11:44:36;12.07;;;5.75;;
22764;SDS011;11549;50.852;3.816;2022-12-20T11:47:42;10.38;;;5.57;;
22764;SDS011;11549;50.852;3.816;2022-12-20T11:50:39;10.00;;;5.50;;
22764;SDS011;11549;50.852;3.816;2022-12-20T11:53:17;12.23;;;6.00;;
22764;SDS011;11549;50.852;3.816;2022-12-20T11:55:52;11.57;;;6.05;;
22764;SDS011;11549;50.852;3.816;2022-12-20T11:58:25;11.52;;;5.93;;
22764;SDS011;11549;50.852;3.816;2022-12-20T12:01:00;8.90;;;5.93;;
22764;SDS011;11549;50.852;3.816;2022-12-20T12:03:33;11.43;;;6.05;;
22764;SDS011;11549;50.852;3.816;2022-12-20T12:06:04;10.63;;;5.88;;
22764;SDS011;11549;50.852;3.816;2022-12-20T12:08:38;9.10;;;5.80;;
22764;SDS011;11549;50.852;3.816;2022-12-20T12:11:11;9.68;;;5.68;;
22764;SDS011;11549;50.852;3.816;2022-12-20T12:14:04;9.93;;;5.85;;
22764;SDS011;11549;50.852;3.816;2022-12-20T12:16:36;9.80;;;6.25;;
22764;SDS011;11549;50.852;3.816;2022-12-20T12:19:07;10.23;;;6.20;;
22764;SDS011;11549;50.852;3.816;2022-12-20T12:21:38;8.85;;;5.82;;
22764;SDS011;11549;50.852;3.816;2022-12-20T12:24:13;10.15;;;6.20;;
22764;SDS011;11549;50.852;3.816;2022-12-20T12:26:48;11.00;;;5.80;;
22764;SDS011;11549;50.852;3.816;2022-12-20T12:29:17;9.85;;;5.63;;
22764;SDS011;11549;50.852;3.816;2022-12-20T12:31:50;8.15;;;5.32;;
22764;SDS011;11549;50.852;3.816;2022-12-20T12:34:27;9.40;;;6.03;;
22764;SDS011;11549;50.852;3.816;2022-12-20T12:37:08;9.68;;;5.68;;
22764;SDS011;11549;50.852;3.816;2022-12-20T12:40:02;8.30;;;5.57;;
22764;SDS011;11549;50.852;3.816;2022-12-20T12:43:01;8.63;;;5.95;;
22764;SDS011;11549;50.852;3.816;2022-12-20T12:45:58;9.95;;;6.38;;
22764;SDS011;11549;50.852;3.816;2022-12-20T12:48:34;11.13;;;5.75;;
22764;SDS011;11549;50.852;3.816;2022-12-20T12:51:07;9.63;;;5.97;;
22764;SDS011;11549;50.852;3.816;2022-12-20T12:53:40;8.20;;;6.35;;
22764;SDS011;11549;50.852;3.816;2022-12-20T13:02:25;9.02;;;6.35;;
22764;SDS011;11549;50.852;3.816;2022-12-20T13:08:00;9.23;;;6.57;;
22764;SDS011;11549;50.852;3.816;2022-12-20T13:13:28;10.68;;;6.30;;
22764;SDS011;11549;50.852;3.816;2022-12-20T13:19:17;11.88;;;7.30;;
22764;SDS011;11549;50.852;3.816;2022-12-20T13:22:17;11.32;;;7.32;;
22764;SDS011;11549;50.852;3.816;2022-12-20T13:24:52;16.75;;;8.15;;
22764;SDS011;11549;50.852;3.816;2022-12-20T13:27:26;10.65;;;6.32;;
22764;SDS011;11549;50.852;3.816;2022-12-20T13:29:58;13.25;;;8.05;;
22764;SDS011;11549;50.852;3.816;2022-12-20T13:38:54;11.65;;;8.02;;
22764;SDS011;11549;50.852;3.816;2022-12-20T13:41:29;11.05;;;7.95;;
22764;SDS011;11549;50.852;3.816;2022-12-20T13:49:58;10.85;;;7.55;;
22764;SDS011;11549;50.852;3.816;2022-12-20T13:52:29;14.10;;;7.65;;
22764;SDS011;11549;50.852;3.816;2022-12-20T13:55:01;10.57;;;7.25;;
22764;SDS011;11549;50.852;3.816;2022-12-20T13:57:42;15.27;;;9.20;;
22764;SDS011;11549;50.852;3.816;2022-12-20T14:00:14;13.75;;;9.10;;
22764;SDS011;11549;50.852;3.816;2022-12-20T14:02:44;11.73;;;8.23;;
22764;SDS011;11549;50.852;3.816;2022-12-20T14:05:14;13.32;;;8.18;;
22764;SDS011;11549;50.852;3.816;2022-12-20T14:07:47;10.00;;;8.07;;
22764;SDS011;11549;50.852;3.816;2022-12-20T14:10:23;11.10;;;8.20;;
22764;SDS011;11549;50.852;3.816;2022-12-20T14:12:54;12.10;;;7.40;;
22764;SDS011;11549;50.852;3.816;2022-12-20T14:15:25;12.63;;;8.23;;
22764;SDS011;11549;50.852;3.816;2022-12-20T14:17:55;11.63;;;8.50;;
22764;SDS011;11549;50.852;3.816;2022-12-20T14:20:26;13.13;;;9.20;;
22764;SDS011;11549;50.852;3.816;2022-12-20T14:22:58;15.73;;;9.27;;
22764;SDS011;11549;50.852;3.816;2022-12-20T14:25:38;13.57;;;9.57;;
22764;SDS011;11549;50.852;3.816;2022-12-20T14:28:15;14.75;;;9.68;;
22764;SDS011;11549;50.852;3.816;2022-12-20T14:30:53;16.17;;;10.27;;
22764;SDS011;11549;50.852;3.816;2022-12-20T14:33:25;15.48;;;10.60;;
22764;SDS011;11549;50.852;3.816;2022-12-20T14:35:56;14.75;;;9.70;;
22764;SDS011;11549;50.852;3.816;2022-12-20T14:38:34;14.43;;;9.70;;
22764;SDS011;11549;50.852;3.816;2022-12-20T14:41:03;15.32;;;10.38;;
22764;SDS011;11549;50.852;3.816;2022-12-20T14:43:33;16.98;;;10.70;;
22764;SDS011;11549;50.852;3.816;2022-12-20T14:49:03;17.00;;;9.60;;
22764;SDS011;11549;50.852;3.816;2022-12-20T14:51:44;15.73;;;11.02;;
22764;SDS011;11549;50.852;3.816;2022-12-20T14:54:15;13.30;;;9.43;;
22764;SDS011;11549;50.852;3.816;2022-12-20T14:57:10;13.18;;;9.30;;
22764;SDS011;11549;50.852;3.816;2022-12-20T15:02:32;14.35;;;10.55;;
22764;SDS011;11549;50.852;3.816;2022-12-20T15:08:20;14.13;;;10.43;;
22764;SDS011;11549;50.852;3.816;2022-12-20T15:10:57;14.00;;;10.15;;
22764;SDS011;11549;50.852;3.816;2022-12-20T15:13:30;15.23;;;10.82;;
22764;SDS011;11549;50.852;3.816;2022-12-20T15:16:03;13.13;;;10.40;;
22764;SDS011;11549;50.852;3.816;2022-12-20T15:18:33;13.18;;;10.35;;
22764;SDS011;11549;50.852;3.816;2022-12-20T15:21:05;12.60;;;10.15;;
22764;SDS011;11549;50.852;3.816;2022-12-20T15:23:40;13.38;;;10.75;;
22764;SDS011;11549;50.852;3.816;2022-12-20T15:26:13;14.18;;;10.75;;
22764;SDS011;11549;50.852;3.816;2022-12-20T15:28:44;11.90;;;10.27;;
22764;SDS011;11549;50.852;3.816;2022-12-20T15:31:13;14.13;;;10.23;;
22764;SDS011;11549;50.852;3.816;2022-12-20T15:33:45;12.60;;;10.30;;
22764;SDS011;11549;50.852;3.816;2022-12-20T15:36:15;13.77;;;10.95;;
22764;SDS011;11549;50.852;3.816;2022-12-20T15:38:44;14.63;;;12.07;;
22764;SDS011;11549;50.852;3.816;2022-12-20T15:41:33;16.48;;;13.57;;
22764;SDS011;11549;50.852;3.816;2022-12-20T15:44:04;15.38;;;12.48;;
22764;SDS011;11549;50.852;3.816;2022-12-20T15:46:33;16.13;;;13.43;;
22764;SDS011;11549;50.852;3.816;2022-12-20T15:49:02;17.02;;;13.65;;
22764;SDS011;11549;50.852;3.816;2022-12-20T15:51:30;16.98;;;13.90;;
22764;SDS011;11549;50.852;3.816;2022-12-20T15:54:01;15.60;;;13.85;;
22764;SDS011;11549;50.852;3.816;2022-12-20T15:56:31;15.20;;;13.27;;